createdAt,value
2022-10-24T00:00:05.309Z,7.89
2022-10-24T00:02:58.272Z,7.88
2022-10-24T00:05:31.264Z,7.85
2022-10-24T00:08:04.950Z,7.83
2022-10-24T00:10:37.656Z,7.84
2022-10-24T00:13:10.271Z,7.88
2022-10-24T00:15:46.222Z,7.93
2022-10-24T00:18:21.210Z,7.97
2022-10-24T00:20:53.752Z,8.00
2022-10-24T00:23:26.374Z,8.04
2022-10-24T00:26:02.324Z,8.04
2022-10-24T00:28:37.281Z,7.97
2022-10-24T00:31:14.255Z,7.99
2022-10-24T00:33:47.071Z,7.96
2022-10-24T00:36:24.126Z,7.93
2022-10-24T00:38:56.960Z,7.92
2022-10-24T00:41:40.169Z,7.93
2022-10-24T00:44:28.336Z,7.96
2022-10-24T00:47:10.021Z,7.97
2022-10-24T00:50:04.769Z,7.95
2022-10-24T00:52:44.673Z,7.95
2022-10-24T00:55:18.158Z,7.98
2022-10-24T00:57:57.251Z,8.02
2022-10-24T01:00:33.577Z,8.04
2022-10-24T01:03:06.276Z,8.06
2022-10-24T01:05:48.321Z,8.07
2022-10-24T01:08:19.591Z,8.02
2022-10-24T01:11:25.540Z,8.04
2022-10-24T01:14:08.879Z,8.02
2022-10-24T01:16:50.617Z,7.96
2022-10-24T01:19:53.921Z,7.82
2022-10-24T01:22:34.422Z,7.76
2022-10-24T01:25:20.731Z,7.71
2022-10-24T01:28:09.691Z,7.63
2022-10-24T01:30:57.951Z,7.65
2022-10-24T01:33:36.229Z,7.69
2022-10-24T01:36:18.982Z,7.68
2022-10-24T01:39:03.970Z,7.76
2022-10-24T01:41:37.337Z,7.79
2022-10-24T01:44:18.290Z,7.76
2022-10-24T01:47:02.169Z,7.81
2022-10-24T01:49:38.587Z,7.81
2022-10-24T01:54:53.042Z,7.84
2022-10-24T01:57:36.696Z,7.81
2022-10-24T02:00:12.004Z,7.78
2022-10-24T02:02:55.743Z,7.69
2022-10-24T02:05:51.266Z,7.63
2022-10-24T02:08:30.326Z,7.56
2022-10-24T02:11:07.615Z,7.62
2022-10-24T02:13:59.812Z,7.61
2022-10-24T02:16:33.093Z,7.61
2022-10-24T02:19:07.130Z,7.60
2022-10-24T02:22:18.627Z,7.58
2022-10-24T02:24:59.449Z,7.56
2022-10-24T02:27:49.806Z,7.56
2022-10-24T02:30:28.585Z,7.56
2022-10-24T02:33:02.206Z,7.56
2022-10-24T02:35:38.851Z,7.55
2022-10-24T02:38:23.094Z,7.57
2022-10-24T02:40:57.155Z,7.53
2022-10-24T02:43:31.145Z,7.61
2022-10-24T02:46:05.054Z,7.63
2022-10-24T02:48:44.884Z,7.65
2022-10-24T02:51:19.688Z,7.66
2022-10-24T02:53:53.373Z,7.66
2022-10-24T02:56:26.184Z,7.66
2022-10-24T02:58:58.880Z,7.62
2022-10-24T03:01:35.353Z,7.60
2022-10-24T03:04:07.945Z,7.56
2022-10-24T03:06:41.294Z,7.61
2022-10-24T03:09:14.033Z,7.59
2022-10-24T03:11:48.036Z,7.56
2022-10-24T03:14:20.508Z,7.54
2022-10-24T03:16:53.157Z,7.56
2022-10-24T03:19:25.449Z,7.58
2022-10-24T03:21:58.011Z,7.63
2022-10-24T03:24:43.451Z,7.67
2022-10-24T03:27:19.705Z,7.70
2022-10-24T03:29:52.577Z,7.65
2022-10-24T03:35:04.598Z,7.71
2022-10-24T03:37:37.131Z,7.74
2022-10-24T03:40:10.298Z,7.76
2022-10-24T03:42:45.323Z,7.78
2022-10-24T03:45:18.846Z,7.80
2022-10-24T03:47:52.004Z,7.81
2022-10-24T03:50:24.669Z,7.83
2022-10-24T03:52:58.060Z,7.83
2022-10-24T03:55:32.086Z,7.89
2022-10-24T03:58:08.735Z,7.94
2022-10-24T04:00:45.445Z,7.91
2022-10-24T04:03:17.986Z,7.93
2022-10-24T04:05:50.479Z,7.99
2022-10-24T04:08:23.035Z,8.01
2022-10-24T04:10:56.145Z,7.97
2022-10-24T04:13:33.445Z,8.04
2022-10-24T04:16:06.139Z,8.06
2022-10-24T04:18:41.726Z,8.07
2022-10-24T04:21:21.845Z,8.07
2022-10-24T04:23:55.056Z,8.07
2022-10-24T04:26:27.885Z,8.07
2022-10-24T04:29:05.808Z,8.09
2022-10-24T04:31:38.664Z,8.12
2022-10-24T04:34:11.568Z,8.12
2022-10-24T04:36:44.003Z,8.08
2022-10-24T04:39:16.834Z,8.05
2022-10-24T04:41:49.699Z,8.08
2022-10-24T04:44:22.537Z,8.08
2022-10-24T04:46:56.006Z,8.10
2022-10-24T04:49:29.094Z,8.03
2022-10-24T04:52:03.610Z,8.04
2022-10-24T04:54:37.266Z,8.04
2022-10-24T04:57:10.332Z,8.01
2022-10-24T04:59:42.907Z,7.97
2022-10-24T05:02:16.343Z,7.90
2022-10-24T05:04:49.514Z,7.85
2022-10-24T05:07:26.169Z,7.82
2022-10-24T05:10:12.169Z,7.83
2022-10-24T05:12:45.280Z,7.85
2022-10-24T05:15:19.242Z,7.87
2022-10-24T05:17:51.637Z,7.90
2022-10-24T05:20:24.184Z,7.91
2022-10-24T05:22:57.532Z,7.94
2022-10-24T05:25:30.445Z,7.92
2022-10-24T05:28:03.942Z,7.96
2022-10-24T05:30:36.965Z,8.03
2022-10-24T05:33:09.964Z,8.06
2022-10-24T05:35:44.219Z,8.09
2022-10-24T05:38:17.578Z,8.07
2022-10-24T05:40:52.098Z,8.09
2022-10-24T05:43:25.001Z,8.13
2022-10-24T05:45:58.167Z,8.18
2022-10-24T05:48:31.064Z,8.21
2022-10-24T05:51:03.832Z,8.23
2022-10-24T05:53:36.702Z,8.29
2022-10-24T05:56:13.975Z,8.36
2022-10-24T05:58:46.977Z,8.47
2022-10-24T06:01:20.524Z,8.55
2022-10-24T06:03:57.149Z,8.63
2022-10-24T06:06:29.991Z,8.71
2022-10-24T06:09:02.830Z,8.79
2022-10-24T06:11:36.288Z,8.87
2022-10-24T06:14:09.516Z,8.94
2022-10-24T06:16:42.188Z,8.99
2022-10-24T06:19:14.463Z,9.06
2022-10-24T06:21:47.006Z,9.15
2022-10-24T06:24:24.221Z,9.25
2022-10-24T06:26:57.142Z,9.37
2022-10-24T06:29:30.025Z,9.41
2022-10-24T06:32:03.265Z,9.37
2022-10-24T06:34:36.967Z,9.42
2022-10-24T06:37:10.134Z,9.43
2022-10-24T06:39:43.290Z,9.45
2022-10-24T06:42:16.282Z,9.49
2022-10-24T06:44:49.382Z,9.54
2022-10-24T06:47:22.426Z,9.62
2022-10-24T06:49:59.258Z,9.70
2022-10-24T06:52:32.218Z,9.79
2022-10-24T06:55:05.980Z,9.88
2022-10-24T06:57:39.190Z,9.96
2022-10-24T07:00:12.556Z,10.03
2022-10-24T07:02:45.783Z,10.10
2022-10-24T07:05:19.156Z,10.12
2022-10-24T07:07:52.375Z,10.19
2022-10-24T07:10:25.490Z,10.35
2022-10-24T07:12:58.434Z,10.47
2022-10-24T07:15:31.206Z,10.58
2022-10-24T07:18:04.103Z,10.71
2022-10-24T07:23:15.996Z,11.02
2022-10-24T07:25:49.013Z,11.18
2022-10-24T07:28:22.074Z,11.33
2022-10-24T07:30:55.285Z,11.48
2022-10-24T07:33:28.890Z,11.60
2022-10-24T07:36:02.934Z,11.77
2022-10-24T07:38:36.570Z,11.89
2022-10-24T07:41:09.883Z,12.03
2022-10-24T07:43:43.015Z,12.15
2022-10-24T07:46:18.227Z,12.24
2022-10-24T07:48:55.371Z,12.29
2022-10-24T07:51:32.288Z,12.45
2022-10-24T07:54:05.490Z,12.55
2022-10-24T07:56:38.527Z,12.65
2022-10-24T07:59:29.794Z,12.73
2022-10-24T08:02:06.252Z,12.84
2022-10-24T08:04:39.734Z,12.92
2022-10-24T08:07:16.860Z,13.00
2022-10-24T08:09:51.817Z,13.11
2022-10-24T08:12:24.786Z,13.13
2022-10-24T08:14:57.878Z,13.22
2022-10-24T08:17:30.905Z,13.26
2022-10-24T08:20:03.599Z,13.29
2022-10-24T08:22:36.384Z,13.30
2022-10-24T08:25:10.647Z,13.26
2022-10-24T08:27:44.523Z,13.25
2022-10-24T08:30:18.105Z,13.26
2022-10-24T08:32:50.751Z,13.30
2022-10-24T08:35:23.819Z,13.31
2022-10-24T08:37:56.736Z,13.35
2022-10-24T08:40:30.119Z,13.38
2022-10-24T08:43:02.912Z,13.44
2022-10-24T08:46:09.293Z,13.48
2022-10-24T08:48:51.842Z,13.46
2022-10-24T08:51:44.558Z,13.44
2022-10-24T08:54:23.157Z,13.44
2022-10-24T08:57:00.828Z,13.43
2022-10-24T08:59:38.469Z,13.44
2022-10-24T09:02:13.530Z,13.44
2022-10-24T09:05:02.102Z,13.47
2022-10-24T09:07:34.632Z,13.50
2022-10-24T09:10:55.370Z,13.58
2022-10-24T09:13:30.334Z,13.65
2022-10-24T09:16:02.931Z,13.73
2022-10-24T09:18:43.794Z,13.79
2022-10-24T09:21:17.816Z,13.86
2022-10-24T09:23:52.173Z,13.96
2022-10-24T09:26:34.903Z,14.02
2022-10-24T09:29:07.702Z,14.11
2022-10-24T09:31:43.525Z,14.26
2022-10-24T09:34:16.634Z,14.37
2022-10-24T09:36:49.475Z,14.44
2022-10-24T09:39:33.196Z,14.57
2022-10-24T09:42:06.963Z,14.64
2022-10-24T09:44:44.285Z,14.71
2022-10-24T09:47:31.495Z,14.75
2022-10-24T09:50:04.535Z,14.86
2022-10-24T09:52:37.166Z,14.91
2022-10-24T09:55:22.162Z,15.06
2022-10-24T09:58:00.904Z,15.12
2022-10-24T10:00:37.121Z,15.25
2022-10-24T10:03:24.125Z,15.34
2022-10-24T10:05:59.247Z,15.42
2022-10-24T10:08:37.494Z,15.49
2022-10-24T10:11:15.650Z,15.58
2022-10-24T10:13:56.107Z,15.66
2022-10-24T10:16:32.392Z,15.74
2022-10-24T10:19:20.378Z,15.82
2022-10-24T10:22:02.977Z,15.88
2022-10-24T10:24:43.870Z,15.90
2022-10-24T10:27:36.113Z,15.98
2022-10-24T10:30:22.240Z,16.08
2022-10-24T10:33:07.137Z,16.15
2022-10-24T10:35:47.730Z,16.22
2022-10-24T10:38:43.540Z,16.28
2022-10-24T10:41:33.410Z,16.33
2022-10-24T10:44:41.721Z,16.39
2022-10-24T10:47:27.712Z,16.46
2022-10-24T10:50:02.091Z,16.53
2022-10-24T10:52:46.457Z,16.56
2022-10-24T10:55:24.834Z,16.64
2022-10-24T10:58:32.382Z,16.66
2022-10-24T11:01:30.165Z,16.78
2022-10-24T11:04:38.941Z,16.84
2022-10-24T11:07:38.697Z,16.94
2022-10-24T11:10:25.965Z,16.98
2022-10-24T11:12:59.987Z,17.02
2022-10-24T11:15:44.715Z,17.05
2022-10-24T11:18:23.813Z,17.11
2022-10-24T11:21:11.337Z,17.22
2022-10-24T11:23:53.796Z,17.25
2022-10-24T11:26:44.175Z,17.27
2022-10-24T11:29:54.409Z,17.29
2022-10-24T11:32:38.510Z,17.35
2022-10-24T11:35:33.693Z,17.37
2022-10-24T11:38:23.515Z,17.39
2022-10-24T11:41:03.184Z,17.42
2022-10-24T11:43:43.944Z,17.45
2022-10-24T11:46:31.325Z,17.45
2022-10-24T11:49:31.260Z,17.47
2022-10-24T11:52:33.127Z,17.49
2022-10-24T11:55:17.642Z,17.51
2022-10-24T11:57:54.503Z,17.55
2022-10-24T12:00:57.681Z,17.58
2022-10-24T12:04:13.679Z,17.59
2022-10-24T12:06:54.766Z,17.62
2022-10-24T12:09:51.082Z,17.66
2022-10-24T12:12:51.475Z,17.71
2022-10-24T12:15:46.930Z,17.78
2022-10-24T12:18:41.370Z,17.87
2022-10-24T12:21:21.043Z,17.93
2022-10-24T12:24:03.877Z,17.99
2022-10-24T12:26:37.654Z,18.06
2022-10-24T12:29:25.666Z,18.11
2022-10-24T12:31:58.221Z,18.17
2022-10-24T12:34:30.289Z,18.23
2022-10-24T12:37:11.696Z,18.28
2022-10-24T12:39:47.586Z,18.33
2022-10-24T12:42:22.873Z,18.38
2022-10-24T12:45:47.063Z,18.43
2022-10-24T12:48:40.484Z,18.48
2022-10-24T12:51:30.523Z,18.53
2022-10-24T12:54:05.627Z,18.56
2022-10-24T12:56:41.400Z,18.58
2022-10-24T12:59:24.456Z,18.60
2022-10-24T13:02:17.489Z,18.63
2022-10-24T13:05:20.859Z,18.65
2022-10-24T13:08:35.923Z,18.69
2022-10-24T13:11:52.242Z,18.71
2022-10-24T13:14:47.240Z,18.71
2022-10-24T13:17:44.578Z,18.73
2022-10-24T13:20:28.092Z,18.77
2022-10-24T13:23:25.511Z,18.77
2022-10-24T13:26:00.522Z,18.75
2022-10-24T13:28:39.912Z,18.73
2022-10-24T13:31:12.371Z,18.67
2022-10-24T13:33:50.163Z,18.66
2022-10-24T13:36:28.586Z,18.59
2022-10-24T13:39:03.892Z,18.59
2022-10-24T13:41:37.766Z,18.53
2022-10-24T13:44:39.721Z,18.51
2022-10-24T13:47:35.503Z,18.51
2022-10-24T13:50:24.099Z,18.47
2022-10-24T13:53:01.088Z,18.43
2022-10-24T13:55:48.706Z,18.34
2022-10-24T13:58:25.922Z,18.34
2022-10-24T14:01:03.356Z,18.30
2022-10-24T14:03:40.104Z,18.26
2022-10-24T14:06:17.378Z,18.18
2022-10-24T14:09:04.221Z,18.16
2022-10-24T14:11:51.160Z,18.15
2022-10-24T14:14:40.467Z,18.09
2022-10-24T14:17:27.274Z,18.03
2022-10-24T14:20:21.565Z,17.97
2022-10-24T14:22:54.988Z,17.90
2022-10-24T14:25:40.316Z,17.83
2022-10-24T14:28:20.904Z,17.77
2022-10-24T14:31:02.271Z,17.68
2022-10-24T14:33:55.686Z,17.61
2022-10-24T14:36:33.385Z,17.54
2022-10-24T14:39:07.076Z,17.44
2022-10-24T14:41:43.837Z,17.40
2022-10-24T14:44:20.033Z,17.31
2022-10-24T14:47:21.475Z,17.27
2022-10-24T14:49:55.054Z,17.19
2022-10-24T14:52:32.718Z,17.12
2022-10-24T14:55:22.041Z,17.06
2022-10-24T14:57:57.376Z,16.98
2022-10-24T15:00:38.243Z,16.92
2022-10-24T15:03:13.020Z,16.79
2022-10-24T15:05:56.576Z,16.74
2022-10-24T15:08:38.578Z,16.60
2022-10-24T15:11:31.857Z,16.56
2022-10-24T15:14:07.009Z,16.49
2022-10-24T15:16:42.728Z,16.43
2022-10-24T15:19:22.197Z,16.38
2022-10-24T15:21:55.078Z,16.32
2022-10-24T15:24:28.820Z,16.21
2022-10-24T15:27:14.762Z,16.19
2022-10-24T15:29:47.403Z,16.13
2022-10-24T15:32:20.062Z,16.09
2022-10-24T15:34:56.515Z,16.04
2022-10-24T15:37:29.247Z,15.99
2022-10-24T15:40:06.376Z,15.91
2022-10-24T15:42:39.616Z,15.85
2022-10-24T15:45:19.917Z,15.83
2022-10-24T15:47:53.498Z,15.76
2022-10-24T15:50:26.777Z,15.70
2022-10-24T15:53:00.818Z,15.64
2022-10-24T15:55:33.900Z,15.52
2022-10-24T15:58:06.445Z,15.50
2022-10-24T16:00:40.411Z,15.39
2022-10-24T16:03:18.730Z,15.35
2022-10-24T16:06:00.129Z,15.27
2022-10-24T16:08:33.203Z,15.19
2022-10-24T16:11:09.248Z,15.08
2022-10-24T16:13:43.130Z,15.02
2022-10-24T16:16:16.085Z,15.02
2022-10-24T16:18:49.070Z,14.97
2022-10-24T16:21:24.265Z,14.88
2022-10-24T16:23:57.289Z,14.82
2022-10-24T16:26:30.270Z,14.74
2022-10-24T16:29:03.133Z,14.67
2022-10-24T16:31:35.776Z,14.64
2022-10-24T16:34:09.341Z,14.49
2022-10-24T16:36:42.210Z,14.42
2022-10-24T16:39:16.889Z,14.35
2022-10-24T16:41:49.498Z,14.33
2022-10-24T16:44:22.386Z,14.27
2022-10-24T16:46:55.977Z,14.24
2022-10-24T16:49:28.851Z,14.17
2022-10-24T16:52:01.563Z,14.16
2022-10-24T16:54:34.135Z,14.20
2022-10-24T16:57:06.759Z,14.19
2022-10-24T16:59:39.967Z,14.19
2022-10-24T17:02:15.278Z,14.15
2022-10-24T17:04:48.202Z,14.21
2022-10-24T17:07:21.038Z,14.24
2022-10-24T17:09:53.651Z,14.25
2022-10-24T17:12:27.916Z,14.30
2022-10-24T17:15:01.122Z,14.32
2022-10-24T17:17:34.354Z,14.38
2022-10-24T17:20:09.347Z,14.48
2022-10-24T17:22:44.851Z,14.60
2022-10-24T17:25:22.846Z,14.66
2022-10-24T17:27:56.121Z,14.70
2022-10-24T17:30:30.716Z,14.73
2022-10-24T17:33:03.796Z,14.78
2022-10-24T17:35:42.426Z,14.81
2022-10-24T17:38:28.544Z,14.81
2022-10-24T17:41:07.640Z,14.83
2022-10-24T17:43:40.223Z,14.84
2022-10-24T17:46:15.183Z,14.89
2022-10-24T17:48:47.942Z,14.94
2022-10-24T17:51:24.263Z,14.92
2022-10-24T17:53:56.760Z,14.95
2022-10-24T17:56:29.790Z,14.92
2022-10-24T17:59:03.049Z,14.94
2022-10-24T18:01:37.046Z,14.89
2022-10-24T18:04:10.021Z,14.86
2022-10-24T18:06:43.496Z,14.81
2022-10-24T18:09:16.238Z,14.74
2022-10-24T18:11:49.345Z,14.69
2022-10-24T18:14:22.391Z,14.67
2022-10-24T18:16:55.317Z,14.60
2022-10-24T18:19:27.985Z,14.55
2022-10-24T18:22:00.808Z,14.53
2022-10-24T18:24:33.152Z,14.47
2022-10-24T18:27:05.581Z,14.43
2022-10-24T18:32:15.085Z,14.34
2022-10-24T18:34:48.344Z,14.33
2022-10-24T18:37:21.072Z,14.32
2022-10-24T18:39:54.137Z,14.27
2022-10-24T18:42:44.538Z,14.26
2022-10-24T18:45:26.176Z,14.23
2022-10-24T18:47:58.818Z,14.18
2022-10-24T18:50:31.493Z,14.13
2022-10-24T18:53:22.466Z,14.09
2022-10-24T18:55:55.536Z,14.05
2022-10-24T18:58:27.983Z,14.01
2022-10-24T19:01:02.212Z,13.97
2022-10-24T19:03:39.059Z,13.95
2022-10-24T19:06:29.928Z,13.93
2022-10-24T19:09:02.522Z,13.92
2022-10-24T19:11:35.356Z,13.88
2022-10-24T19:14:08.252Z,13.88
2022-10-24T19:16:46.360Z,13.85
2022-10-24T19:19:27.918Z,13.93
2022-10-24T19:22:00.820Z,13.92
2022-10-24T19:24:34.767Z,13.91
2022-10-24T19:27:07.824Z,13.91
2022-10-24T19:29:40.465Z,13.87
2022-10-24T19:32:13.449Z,13.91
2022-10-24T19:34:46.487Z,13.92
2022-10-24T19:37:19.816Z,13.87
2022-10-24T19:39:52.517Z,13.95
2022-10-24T19:42:25.210Z,13.97
2022-10-24T19:44:58.268Z,13.98
2022-10-24T19:47:31.308Z,13.98
2022-10-24T19:50:04.247Z,13.97
2022-10-24T19:52:36.859Z,13.93
2022-10-24T19:55:10.141Z,13.94
2022-10-24T19:57:42.416Z,13.95
2022-10-24T20:00:15.373Z,13.95
2022-10-24T20:02:47.993Z,13.94
2022-10-24T20:05:20.617Z,13.94
2022-10-24T20:07:53.149Z,13.93
2022-10-24T20:10:25.707Z,13.93
2022-10-24T20:12:58.258Z,13.93
2022-10-24T20:15:31.132Z,13.93
2022-10-24T20:18:04.611Z,13.91
2022-10-24T20:20:38.213Z,13.90
2022-10-24T20:23:11.027Z,13.89
2022-10-24T20:25:43.660Z,13.84
2022-10-24T20:28:16.434Z,13.79
2022-10-24T20:30:50.160Z,13.79
2022-10-24T20:33:22.958Z,13.81
2022-10-24T20:35:59.770Z,13.81
2022-10-24T20:38:35.780Z,13.79
2022-10-24T20:41:08.569Z,13.78
2022-10-24T20:43:41.303Z,13.78
2022-10-24T20:46:14.307Z,13.76
2022-10-24T20:48:46.921Z,13.76
2022-10-24T20:51:20.859Z,13.75
2022-10-24T20:53:53.553Z,13.72
2022-10-24T20:56:27.287Z,13.75
2022-10-24T20:58:59.852Z,13.75
2022-10-24T21:01:32.827Z,13.76
2022-10-24T21:04:05.551Z,13.76
2022-10-24T21:06:38.180Z,13.76
2022-10-24T21:09:10.696Z,13.76
2022-10-24T21:11:42.991Z,13.75
2022-10-24T21:14:17.712Z,13.73
2022-10-24T21:16:51.165Z,13.70
2022-10-24T21:19:24.077Z,13.68
2022-10-24T21:21:57.009Z,13.65
2022-10-24T21:24:29.855Z,13.61
2022-10-24T21:27:03.076Z,13.54
2022-10-24T21:29:36.094Z,13.49
2022-10-24T21:32:09.492Z,13.50
2022-10-24T21:34:42.193Z,13.46
2022-10-24T21:37:14.771Z,13.41
2022-10-24T21:39:47.185Z,13.39
2022-10-24T21:42:19.844Z,13.41
2022-10-24T21:44:52.688Z,13.40
2022-10-24T21:47:25.056Z,13.36
2022-10-24T21:49:57.414Z,13.38
2022-10-24T21:52:30.023Z,13.37
2022-10-24T21:55:02.624Z,13.37
2022-10-24T21:57:35.107Z,13.36
2022-10-24T22:00:08.511Z,13.35
2022-10-24T22:02:41.088Z,13.35
2022-10-24T22:05:13.909Z,13.31
2022-10-24T22:07:48.906Z,13.30
2022-10-24T22:10:22.200Z,13.27
2022-10-24T22:12:54.591Z,13.28
2022-10-24T22:15:27.013Z,13.21
2022-10-24T22:17:59.414Z,13.17
2022-10-24T22:20:32.001Z,13.07
2022-10-24T22:23:04.508Z,13.05
2022-10-24T22:25:37.646Z,13.02
2022-10-24T22:28:10.530Z,13.00
2022-10-24T22:30:44.140Z,12.99
2022-10-24T22:33:37.481Z,12.93
2022-10-24T22:36:42.174Z,12.94
2022-10-24T22:39:22.746Z,12.91
2022-10-24T22:41:55.721Z,12.88
2022-10-24T22:44:28.431Z,12.86
2022-10-24T22:47:34.193Z,12.83
2022-10-24T22:50:18.503Z,12.81
2022-10-24T22:52:54.331Z,12.80
2022-10-24T22:55:36.322Z,12.74
2022-10-24T22:58:09.421Z,12.67
2022-10-24T23:00:42.141Z,12.64
2022-10-24T23:03:43.423Z,12.60
2022-10-24T23:06:26.078Z,12.57
2022-10-24T23:08:58.555Z,12.55
2022-10-24T23:11:31.455Z,12.48
2022-10-24T23:14:04.613Z,12.45
2022-10-24T23:16:44.422Z,12.47
2022-10-24T23:19:22.637Z,12.46
2022-10-24T23:21:59.150Z,12.44
2022-10-24T23:24:31.786Z,12.42
2022-10-24T23:27:15.852Z,12.40
2022-10-24T23:29:49.232Z,12.33
2022-10-24T23:32:27.809Z,12.30
2022-10-24T23:35:04.352Z,12.30
2022-10-24T23:37:39.462Z,12.27
2022-10-24T23:40:20.888Z,12.24
2022-10-24T23:42:54.569Z,12.23
2022-10-24T23:45:30.006Z,12.20
2022-10-24T23:48:10.891Z,12.17
2022-10-24T23:51:05.164Z,12.14
2022-10-24T23:53:50.444Z,12.11
2022-10-24T23:56:25.230Z,12.08
2022-10-24T23:58:58.499Z,12.07
